createdAt,value
2024-04-24T00:03:06.821Z,8.40
2024-04-24T00:06:51.458Z,8.20
2024-04-24T00:10:33.525Z,8.10
2024-04-24T00:14:15.557Z,8.00
2024-04-24T00:17:57.618Z,7.90
2024-04-24T00:21:39.553Z,7.80
2024-04-24T00:25:21.558Z,7.80
2024-04-24T00:29:03.594Z,7.80
2024-04-24T00:32:45.649Z,7.70
2024-04-24T00:36:31.144Z,7.60
2024-04-24T00:40:13.576Z,7.40
2024-04-24T00:43:55.578Z,7.30
2024-04-24T00:47:39.934Z,7.20
2024-04-24T00:51:24.360Z,7.10
2024-04-24T00:55:06.731Z,7.10
2024-04-24T00:58:49.265Z,7.00
2024-04-24T01:02:31.417Z,7.00
2024-04-24T01:06:13.325Z,6.90
2024-04-24T01:09:55.415Z,6.80
2024-04-24T01:13:37.502Z,6.80
2024-04-24T01:17:20.230Z,6.90
2024-04-24T01:21:04.453Z,6.90
2024-04-24T01:24:57.861Z,7.00
2024-04-24T01:28:40.088Z,7.00
2024-04-24T01:32:22.104Z,7.00
2024-04-24T01:36:04.417Z,7.10
2024-04-24T01:39:46.390Z,7.00
2024-04-24T01:43:28.351Z,7.00
2024-04-24T01:47:10.416Z,7.00
2024-04-24T01:50:52.422Z,7.00
2024-04-24T01:54:34.362Z,7.10
2024-04-24T01:58:16.437Z,7.00
2024-04-24T02:01:58.460Z,7.00
2024-04-24T02:05:40.437Z,7.00
2024-04-24T02:09:22.450Z,7.10
2024-04-24T02:13:04.668Z,7.10
2024-04-24T02:16:46.700Z,7.10
2024-04-24T02:20:28.697Z,7.20
2024-04-24T02:24:10.758Z,7.20
2024-04-24T02:27:52.750Z,7.20
2024-04-24T02:31:34.671Z,7.20
2024-04-24T02:35:16.772Z,7.20
2024-04-24T02:38:58.807Z,7.20
2024-04-24T02:42:40.800Z,7.20
2024-04-24T02:46:22.791Z,7.30
2024-04-24T02:50:05.015Z,7.30
2024-04-24T02:53:47.024Z,7.20
2024-04-24T02:57:29.942Z,7.20
2024-04-24T03:01:15.320Z,7.10
2024-04-24T03:04:57.321Z,7.00
2024-04-24T03:08:39.300Z,7.00
2024-04-24T03:12:21.312Z,7.10
2024-04-24T03:16:03.388Z,7.10
2024-04-24T03:19:45.410Z,7.10
2024-04-24T03:23:27.365Z,7.00
2024-04-24T03:27:11.810Z,7.00
2024-04-24T03:30:53.858Z,7.00
2024-04-24T03:34:35.780Z,7.00
2024-04-24T03:38:17.833Z,7.00
2024-04-24T03:41:59.901Z,6.90
2024-04-24T03:45:41.892Z,6.80
2024-04-24T03:49:23.872Z,6.80
2024-04-24T03:53:05.956Z,6.70
2024-04-24T03:56:47.916Z,6.70
2024-04-24T04:00:29.819Z,6.60
2024-04-24T04:04:11.925Z,6.50
2024-04-24T04:08:00.816Z,6.40
2024-04-24T04:11:45.757Z,6.40
2024-04-24T04:15:30.328Z,6.30
2024-04-24T04:19:12.515Z,6.30
2024-04-24T04:22:56.002Z,6.30
2024-04-24T04:26:37.964Z,6.30
2024-04-24T04:30:20.171Z,6.30
2024-04-24T04:34:02.125Z,6.30
2024-04-24T04:37:44.102Z,6.30
2024-04-24T04:41:26.027Z,6.30
2024-04-24T04:45:08.486Z,6.20
2024-04-24T04:48:52.944Z,6.30
2024-04-24T04:52:35.058Z,6.30
2024-04-24T04:56:17.024Z,6.30
2024-04-24T04:59:59.046Z,6.30
2024-04-24T05:03:40.988Z,6.30
2024-04-24T05:07:22.926Z,6.40
2024-04-24T05:11:05.685Z,6.40
2024-04-24T05:14:50.767Z,6.40
2024-04-24T05:18:33.192Z,6.50
2024-04-24T05:22:15.654Z,6.50
2024-04-24T05:25:58.872Z,6.50
2024-04-24T05:29:40.809Z,6.50
2024-04-24T05:33:22.878Z,6.50
2024-04-24T05:37:05.188Z,6.50
2024-04-24T05:40:47.207Z,6.50
2024-04-24T05:44:34.980Z,6.50
2024-04-24T05:48:17.004Z,6.50
2024-04-24T05:51:59.296Z,6.50
2024-04-24T05:55:41.703Z,6.40
2024-04-24T05:59:23.668Z,6.50
2024-04-24T06:03:07.498Z,6.50
2024-04-24T06:06:51.165Z,6.60
2024-04-24T06:10:35.109Z,6.60
2024-04-24T06:14:17.157Z,6.60
2024-04-24T06:17:59.245Z,6.70
2024-04-24T06:21:41.590Z,6.80
2024-04-24T06:25:23.825Z,6.80
2024-04-24T06:29:05.854Z,6.90
2024-04-24T06:32:47.961Z,6.90
2024-04-24T06:36:30.621Z,7.00
2024-04-24T06:40:12.644Z,7.10
2024-04-24T06:43:55.285Z,7.20
2024-04-24T06:47:37.595Z,7.30
2024-04-24T06:51:22.550Z,7.30
2024-04-24T06:55:05.907Z,7.40
2024-04-24T06:58:47.892Z,7.50
2024-04-24T07:02:29.867Z,7.70
2024-04-24T07:06:11.773Z,7.90
2024-04-24T07:09:53.671Z,8.10
2024-04-24T07:13:35.695Z,8.20
2024-04-24T07:17:17.696Z,8.30
2024-04-24T07:20:59.775Z,8.40
2024-04-24T07:24:41.670Z,8.50
2024-04-24T07:28:23.841Z,8.70
2024-04-24T07:32:06.210Z,8.80
2024-04-24T07:35:48.238Z,8.90
2024-04-24T07:39:30.141Z,9.00
2024-04-24T07:43:15.250Z,9.10
2024-04-24T07:46:59.261Z,9.20
2024-04-24T07:50:47.066Z,9.30
2024-04-24T07:54:29.159Z,9.40
2024-04-24T07:58:11.127Z,9.50
2024-04-24T08:01:53.152Z,9.80
2024-04-24T08:05:36.870Z,10.00
2024-04-24T08:09:19.791Z,10.00
2024-04-24T08:13:01.786Z,10.10
2024-04-24T08:16:43.714Z,10.30
2024-04-24T08:20:25.744Z,10.50
2024-04-24T08:24:07.918Z,10.60
2024-04-24T08:27:52.105Z,10.80
2024-04-24T08:31:34.007Z,11.00
2024-04-24T08:35:16.086Z,11.20
2024-04-24T08:38:58.381Z,11.40
2024-04-24T08:42:40.459Z,11.70
2024-04-24T08:46:22.605Z,11.90
2024-04-24T08:50:04.894Z,12.10
2024-04-24T08:53:54.512Z,12.30
2024-04-24T08:57:37.958Z,12.40
2024-04-24T09:01:22.796Z,12.40
2024-04-24T09:05:07.828Z,12.50
2024-04-24T09:08:51.957Z,12.60
2024-04-24T09:12:36.835Z,12.80
2024-04-24T09:16:22.018Z,13.00
2024-04-24T09:20:04.210Z,13.20
2024-04-24T09:23:46.132Z,13.30
2024-04-24T09:27:30.507Z,13.60
2024-04-24T09:31:13.220Z,13.70
2024-04-24T09:34:55.551Z,13.70
2024-04-24T09:38:37.633Z,13.80
2024-04-24T09:42:19.778Z,13.90
2024-04-24T09:46:01.972Z,14.00
2024-04-24T09:49:45.022Z,14.10
2024-04-24T09:53:27.153Z,14.20
2024-04-24T09:57:12.587Z,14.10
2024-04-24T10:00:55.369Z,14.00
2024-04-24T10:04:42.427Z,13.90
2024-04-24T10:08:30.630Z,13.70
2024-04-24T10:12:26.096Z,13.50
2024-04-24T10:16:09.828Z,13.70
2024-04-24T10:19:52.971Z,13.80
2024-04-24T10:23:36.335Z,14.30
2024-04-24T10:27:21.940Z,15.40
2024-04-24T10:31:04.729Z,16.70
2024-04-24T10:34:48.042Z,18.00
2024-04-24T10:38:34.342Z,19.10
2024-04-24T10:42:17.400Z,19.60
2024-04-24T10:46:01.366Z,20.00
2024-04-24T10:49:59.310Z,20.80
2024-04-24T10:53:55.898Z,21.80
2024-04-24T10:57:49.538Z,22.60
2024-04-24T11:01:41.835Z,23.40
2024-04-24T11:05:37.273Z,24.00
2024-04-24T11:09:21.708Z,24.60
2024-04-24T11:13:14.207Z,25.00
2024-04-24T11:16:57.140Z,24.80
2024-04-24T11:20:39.384Z,24.10
2024-04-24T11:24:34.709Z,23.50
2024-04-24T11:28:20.410Z,22.80
2024-04-24T11:32:05.170Z,22.00
2024-04-24T11:35:47.701Z,21.40
2024-04-24T11:39:29.821Z,20.80
2024-04-24T11:43:11.920Z,20.80
2024-04-24T11:46:54.770Z,20.60
2024-04-24T11:50:37.192Z,20.40
2024-04-24T11:54:19.297Z,20.70
2024-04-24T11:58:08.935Z,21.70
2024-04-24T12:01:50.969Z,22.30
2024-04-24T12:05:33.248Z,22.60
2024-04-24T12:09:18.345Z,22.80
2024-04-24T12:13:00.721Z,23.50
2024-04-24T12:16:43.994Z,24.60
2024-04-24T12:20:26.165Z,25.30
2024-04-24T12:24:08.589Z,25.30
2024-04-24T12:27:50.625Z,24.50
2024-04-24T12:31:33.450Z,23.50
2024-04-24T12:35:15.518Z,22.50
2024-04-24T12:38:57.468Z,21.90
2024-04-24T12:42:39.513Z,21.40
2024-04-24T12:46:21.468Z,21.00
2024-04-24T12:50:03.594Z,20.70
2024-04-24T12:53:45.667Z,20.50
2024-04-24T12:57:27.670Z,20.60
2024-04-24T13:01:19.303Z,20.60
2024-04-24T13:05:05.022Z,20.30
2024-04-24T13:08:48.046Z,20.50
2024-04-24T13:12:30.446Z,21.80
2024-04-24T13:16:12.448Z,23.20
2024-04-24T13:19:54.505Z,23.90
2024-04-24T13:23:36.568Z,23.40
2024-04-24T13:27:18.546Z,22.60
2024-04-24T13:31:03.899Z,22.30
2024-04-24T13:34:47.422Z,22.40
2024-04-24T13:38:29.318Z,23.30
2024-04-24T13:42:11.319Z,24.20
2024-04-24T13:45:53.261Z,25.20
2024-04-24T13:49:35.294Z,25.60
2024-04-24T13:53:17.235Z,25.90
2024-04-24T13:56:59.413Z,25.50
2024-04-24T14:00:41.537Z,24.80
2024-04-24T14:04:23.814Z,23.70
2024-04-24T14:08:05.851Z,22.80
2024-04-24T14:11:48.595Z,22.00
2024-04-24T14:15:30.535Z,22.50
2024-04-24T14:19:12.508Z,23.60
2024-04-24T14:22:54.653Z,24.60
2024-04-24T14:26:36.570Z,25.10
2024-04-24T14:30:18.551Z,25.60
2024-04-24T14:34:00.504Z,26.10
2024-04-24T14:37:42.558Z,26.60
2024-04-24T14:41:25.447Z,26.60
2024-04-24T14:45:07.597Z,25.60
2024-04-24T14:48:49.679Z,24.40
2024-04-24T14:52:33.029Z,23.30
2024-04-24T14:56:15.131Z,22.30
2024-04-24T14:59:57.095Z,21.60
2024-04-24T15:03:39.169Z,21.20
2024-04-24T15:07:21.148Z,20.90
2024-04-24T15:11:04.130Z,20.60
2024-04-24T15:14:47.467Z,20.30
2024-04-24T15:18:33.669Z,20.10
2024-04-24T15:22:16.069Z,20.30
2024-04-24T15:25:58.180Z,20.40
2024-04-24T15:29:40.135Z,20.30
2024-04-24T15:33:22.299Z,20.30
2024-04-24T15:37:07.102Z,20.20
2024-04-24T15:40:49.055Z,20.20
2024-04-24T15:44:35.174Z,20.00
2024-04-24T15:48:20.058Z,19.80
2024-04-24T15:52:01.999Z,19.50
2024-04-24T15:55:43.963Z,19.40
2024-04-24T15:59:28.980Z,19.20
2024-04-24T16:03:11.328Z,19.10
2024-04-24T16:06:54.855Z,19.00
2024-04-24T16:10:36.989Z,18.90
2024-04-24T16:14:19.003Z,18.80
2024-04-24T16:18:03.987Z,18.70
2024-04-24T16:21:46.348Z,18.50
2024-04-24T16:25:28.450Z,18.60
2024-04-24T16:29:11.086Z,18.60
2024-04-24T16:32:53.778Z,18.60
2024-04-24T16:36:37.045Z,18.50
2024-04-24T16:40:19.042Z,18.40
2024-04-24T16:44:01.233Z,18.40
2024-04-24T16:47:43.454Z,18.30
2024-04-24T16:51:25.448Z,18.10
2024-04-24T16:55:08.109Z,18.00
2024-04-24T16:58:50.032Z,17.80
2024-04-24T17:02:33.192Z,17.70
2024-04-24T17:06:15.302Z,17.60
2024-04-24T17:09:57.308Z,17.60
2024-04-24T17:13:39.286Z,17.60
2024-04-24T17:17:21.292Z,17.60
2024-04-24T17:21:03.529Z,17.50
2024-04-24T17:24:45.623Z,17.50
2024-04-24T17:28:28.567Z,17.40
2024-04-24T17:32:10.890Z,17.40
2024-04-24T17:35:52.942Z,17.30
2024-04-24T17:39:34.991Z,17.20
2024-04-24T17:43:17.103Z,17.10
2024-04-24T17:46:59.118Z,17.00
2024-04-24T17:50:41.106Z,16.80
2024-04-24T17:54:23.084Z,16.70
2024-04-24T17:58:05.099Z,16.60
2024-04-24T18:01:47.618Z,16.50
2024-04-24T18:05:31.098Z,16.40
2024-04-24T18:09:13.148Z,16.30
2024-04-24T18:12:56.068Z,16.10
2024-04-24T18:16:38.187Z,16.00
2024-04-24T18:20:20.073Z,15.90
2024-04-24T18:24:02.286Z,15.70
2024-04-24T18:27:45.018Z,15.60
2024-04-24T18:31:27.192Z,15.40
2024-04-24T18:35:09.146Z,15.30
2024-04-24T18:38:51.227Z,15.20
2024-04-24T18:42:34.053Z,15.00
2024-04-24T18:46:17.304Z,14.90
2024-04-24T18:49:59.529Z,14.80
2024-04-24T18:53:41.615Z,14.70
2024-04-24T18:57:23.641Z,14.60
2024-04-24T19:01:05.717Z,14.50
2024-04-24T19:04:47.707Z,14.30
2024-04-24T19:08:29.714Z,14.20
2024-04-24T19:12:11.717Z,14.10
2024-04-24T19:15:53.883Z,14.00
2024-04-24T19:19:35.866Z,13.90
2024-04-24T19:23:17.955Z,13.80
2024-04-24T19:27:00.048Z,13.70
2024-04-24T19:30:42.001Z,13.60
2024-04-24T19:34:24.024Z,13.50
2024-04-24T19:38:05.962Z,13.40
2024-04-24T19:41:47.919Z,13.40
2024-04-24T19:45:30.029Z,13.30
2024-04-24T19:49:11.931Z,13.30
2024-04-24T19:52:54.049Z,13.20
2024-04-24T19:56:39.842Z,13.10
2024-04-24T20:00:22.090Z,13.10
2024-04-24T20:04:04.111Z,13.10
2024-04-24T20:07:46.124Z,13.10
2024-04-24T20:11:28.181Z,13.00
2024-04-24T20:15:13.367Z,13.00
2024-04-24T20:18:58.248Z,12.90
2024-04-24T20:22:40.221Z,12.80
2024-04-24T20:26:22.336Z,12.70
2024-04-24T20:30:05.138Z,12.40
2024-04-24T20:33:47.335Z,12.20
2024-04-24T20:37:29.351Z,12.00
2024-04-24T20:41:11.325Z,11.90
2024-04-24T20:44:55.327Z,11.80
2024-04-24T20:48:37.630Z,11.70
2024-04-24T20:52:19.625Z,11.70
2024-04-24T20:56:09.173Z,11.60
2024-04-24T20:59:53.341Z,11.50
2024-04-24T21:03:37.135Z,11.50
2024-04-24T21:07:20.215Z,11.40
2024-04-24T21:11:03.563Z,11.30
2024-04-24T21:14:45.727Z,11.20
2024-04-24T21:18:30.364Z,11.10
2024-04-24T21:22:12.412Z,11.00
2024-04-24T21:25:58.639Z,10.80
2024-04-24T21:29:40.771Z,10.80
2024-04-24T21:33:22.872Z,10.70
2024-04-24T21:37:05.766Z,10.60
2024-04-24T21:40:47.740Z,10.50
2024-04-24T21:44:30.144Z,10.50
2024-04-24T21:48:12.096Z,10.40
2024-04-24T21:51:54.104Z,10.30
2024-04-24T21:55:36.079Z,10.20
2024-04-24T21:59:18.065Z,10.30
2024-04-24T22:03:00.006Z,10.20
2024-04-24T22:06:44.895Z,10.10
2024-04-24T22:10:26.818Z,10.00
2024-04-24T22:14:08.792Z,9.90
2024-04-24T22:17:50.869Z,10.00
2024-04-24T22:21:33.000Z,9.90
2024-04-24T22:25:17.284Z,10.00
2024-04-24T22:28:59.308Z,10.00
2024-04-24T22:32:42.397Z,10.00
2024-04-24T22:36:24.604Z,10.10
2024-04-24T22:40:07.019Z,10.10
2024-04-24T22:43:49.160Z,10.10
2024-04-24T22:47:31.261Z,10.10
2024-04-24T22:51:14.422Z,10.10
2024-04-24T22:54:56.355Z,10.10
2024-04-24T22:58:38.278Z,10.10
2024-04-24T23:02:20.209Z,10.10
2024-04-24T23:06:02.249Z,10.10
2024-04-24T23:09:44.201Z,10.10
2024-04-24T23:13:26.159Z,10.10
2024-04-24T23:17:08.280Z,10.00
2024-04-24T23:20:50.483Z,10.00
2024-04-24T23:24:32.425Z,10.00
2024-04-24T23:28:14.383Z,9.90
2024-04-24T23:31:56.404Z,9.90
2024-04-24T23:35:38.477Z,9.90
2024-04-24T23:39:20.409Z,9.90
2024-04-24T23:43:02.319Z,9.80
2024-04-24T23:46:44.346Z,9.80
2024-04-24T23:50:26.356Z,9.70
2024-04-24T23:54:08.296Z,9.60
2024-04-24T23:57:50.276Z,9.60
